Greenbush, Massachusetts
Current Conditions -  °F | °C
As of 12:55 PM on Friday 21 Nov 2014 (Local Time) from KGHG Reporting Station
Scattered Clouds Scattered Clouds  
Wind Chill: 31°   Ceiling: Unl
Heat Index: 37°   Visibility: 10mi
Dew Point: 12°   Wind: 9mph
Humidity: 36%   Direction: 290°WNW
Pressure: 30.14"   Gusts: 20mph
Location:  42.18°N, 70.75°W
Report Text: KGHG 211755Z AUTO 29008G17KT 010V020 10SM SCT060 03/M11 A3014 RMK AO2
Loading
Personal Weather Stations






























Interactive Weather Map New forecast layout! Learn more

10-Day Weather Forecast

Advertisements
Track Severe Weather on mobile